sensor_id;sensor_type;location;lat;lon;timestamp;pressure;altitude;pressure_sealevel;temperature;humidity
33280;BME280;20403;43.114;12.434;2022-08-02T00:01:31;99007.28;;;22.01;100.00
33280;BME280;20403;43.114;12.434;2022-08-02T00:03:57;99005.91;;;22.03;100.00
33280;BME280;20403;43.114;12.434;2022-08-02T00:06:22;99006.88;;;22.08;100.00
33280;BME280;20403;43.114;12.434;2022-08-02T00:08:48;99009.81;;;22.06;100.00
33280;BME280;20403;43.114;12.434;2022-08-02T00:11:13;99011.09;;;22.09;100.00
33280;BME280;20403;43.114;12.434;2022-08-02T00:13:39;99011.41;;;22.07;100.00
33280;BME280;20403;43.114;12.434;2022-08-02T00:16:05;99014.19;;;22.02;100.00
33280;BME280;20403;43.114;12.434;2022-08-02T00:18:30;99018.25;;;21.72;100.00
33280;BME280;20403;43.114;12.434;2022-08-02T00:20:55;99022.00;;;21.71;100.00
33280;BME280;20403;43.114;12.434;2022-08-02T00:23:21;99026.13;;;21.77;100.00
33280;BME280;20403;43.114;12.434;2022-08-02T00:25:46;99020.50;;;21.78;100.00
33280;BME280;20403;43.114;12.434;2022-08-02T00:28:12;99024.88;;;21.60;100.00
33280;BME280;20403;43.114;12.434;2022-08-02T00:30:37;99025.66;;;21.61;100.00
33280;BME280;20403;43.114;12.434;2022-08-02T00:33:03;99026.03;;;21.54;100.00
33280;BME280;20403;43.114;12.434;2022-08-02T00:35:33;99025.94;;;21.59;100.00
33280;BME280;20403;43.114;12.434;2022-08-02T00:37:59;99029.09;;;21.61;100.00
33280;BME280;20403;43.114;12.434;2022-08-02T00:40:24;99027.03;;;21.58;100.00
33280;BME280;20403;43.114;12.434;2022-08-02T00:43:04;99021.53;;;21.55;100.00
33280;BME280;20403;43.114;12.434;2022-08-02T00:45:32;99027.91;;;21.54;100.00
33280;BME280;20403;43.114;12.434;2022-08-02T00:47:58;99021.59;;;21.36;100.00
33280;BME280;20403;43.114;12.434;2022-08-02T00:50:24;99022.19;;;21.19;100.00
33280;BME280;20403;43.114;12.434;2022-08-02T00:52:50;99026.50;;;21.29;100.00
33280;BME280;20403;43.114;12.434;2022-08-02T00:55:16;99026.00;;;21.27;100.00
33280;BME280;20403;43.114;12.434;2022-08-02T00:57:41;99026.69;;;21.18;100.00
33280;BME280;20403;43.114;12.434;2022-08-02T01:00:07;99024.63;;;21.15;100.00
33280;BME280;20403;43.114;12.434;2022-08-02T01:02:33;99022.66;;;21.21;100.00
33280;BME280;20403;43.114;12.434;2022-08-02T01:04:58;99022.25;;;21.28;100.00
33280;BME280;20403;43.114;12.434;2022-08-02T01:07:24;99028.47;;;21.37;100.00
33280;BME280;20403;43.114;12.434;2022-08-02T01:09:49;99030.56;;;21.40;100.00
33280;BME280;20403;43.114;12.434;2022-08-02T01:12:15;99026.78;;;21.27;100.00
33280;BME280;20403;43.114;12.434;2022-08-02T01:14:47;99027.97;;;21.21;100.00
33280;BME280;20403;43.114;12.434;2022-08-02T01:25:56;99016.44;;;20.84;100.00
33280;BME280;20403;43.114;12.434;2022-08-02T01:36:30;99019.19;;;20.60;100.00
33280;BME280;20403;43.114;12.434;2022-08-02T01:38:58;99019.09;;;20.65;100.00
33280;BME280;20403;43.114;12.434;2022-08-02T01:41:25;99009.00;;;20.67;100.00
33280;BME280;20403;43.114;12.434;2022-08-02T01:43:55;99013.31;;;20.63;100.00
33280;BME280;20403;43.114;12.434;2022-08-02T01:46:23;99016.19;;;20.67;100.00
33280;BME280;20403;43.114;12.434;2022-08-02T01:48:52;99025.00;;;20.62;100.00
33280;BME280;20403;43.114;12.434;2022-08-02T01:51:19;99023.63;;;20.65;100.00
33280;BME280;20403;43.114;12.434;2022-08-02T01:54:11;99025.94;;;20.52;100.00
33280;BME280;20403;43.114;12.434;2022-08-02T01:56:39;99019.63;;;20.48;100.00
33280;BME280;20403;43.114;12.434;2022-08-02T01:59:08;99025.34;;;20.55;100.00
33280;BME280;20403;43.114;12.434;2022-08-02T02:01:36;99021.41;;;20.53;100.00
33280;BME280;20403;43.114;12.434;2022-08-02T02:04:05;99029.53;;;20.43;100.00
33280;BME280;20403;43.114;12.434;2022-08-02T02:06:32;99030.91;;;20.54;100.00
33280;BME280;20403;43.114;12.434;2022-08-02T02:08:59;99026.19;;;20.51;100.00
33280;BME280;20403;43.114;12.434;2022-08-02T02:11:25;99030.75;;;20.31;100.00
33280;BME280;20403;43.114;12.434;2022-08-02T02:13:51;99029.28;;;20.39;100.00
33280;BME280;20403;43.114;12.434;2022-08-02T02:16:18;99031.59;;;20.46;100.00
33280;BME280;20403;43.114;12.434;2022-08-02T02:18:45;99027.84;;;20.47;100.00
33280;BME280;20403;43.114;12.434;2022-08-02T02:21:13;99030.81;;;20.45;100.00
33280;BME280;20403;43.114;12.434;2022-08-02T02:23:38;99030.00;;;20.45;100.00
33280;BME280;20403;43.114;12.434;2022-08-02T02:26:05;99030.25;;;20.29;100.00
33280;BME280;20403;43.114;12.434;2022-08-02T02:28:34;99034.09;;;20.18;100.00
33280;BME280;20403;43.114;12.434;2022-08-02T02:31:20;99027.03;;;20.13;100.00
33280;BME280;20403;43.114;12.434;2022-08-02T02:33:58;99018.84;;;20.10;100.00
33280;BME280;20403;43.114;12.434;2022-08-02T02:36:26;99018.84;;;20.10;100.00
33280;BME280;20403;43.114;12.434;2022-08-02T02:38:53;99021.22;;;20.11;100.00
33280;BME280;20403;43.114;12.434;2022-08-02T02:41:24;99016.00;;;20.06;100.00
33280;BME280;20403;43.114;12.434;2022-08-02T02:43:53;99015.34;;;20.14;100.00
33280;BME280;20403;43.114;12.434;2022-08-02T02:46:20;99009.78;;;20.16;100.00
33280;BME280;20403;43.114;12.434;2022-08-02T02:48:48;99017.06;;;20.05;100.00
33280;BME280;20403;43.114;12.434;2022-08-02T02:51:15;99016.84;;;20.02;100.00
33280;BME280;20403;43.114;12.434;2022-08-02T02:53:42;99014.56;;;19.95;100.00
33280;BME280;20403;43.114;12.434;2022-08-02T02:56:09;99018.00;;;19.96;100.00
33280;BME280;20403;43.114;12.434;2022-08-02T02:58:37;99018.56;;;20.11;100.00
33280;BME280;20403;43.114;12.434;2022-08-02T03:01:02;99016.28;;;20.05;100.00
33280;BME280;20403;43.114;12.434;2022-08-02T03:03:48;99016.56;;;20.03;100.00
33280;BME280;20403;43.114;12.434;2022-08-02T03:06:14;99014.63;;;19.90;100.00
33280;BME280;20403;43.114;12.434;2022-08-02T03:08:39;99018.00;;;19.96;100.00
33280;BME280;20403;43.114;12.434;2022-08-02T03:11:07;99016.78;;;20.07;100.00
33280;BME280;20403;43.114;12.434;2022-08-02T03:13:33;99021.50;;;19.91;100.00
33280;BME280;20403;43.114;12.434;2022-08-02T03:16:00;99016.00;;;19.87;100.00
33280;BME280;20403;43.114;12.434;2022-08-02T03:18:33;99018.22;;;19.80;100.00
33280;BME280;20403;43.114;12.434;2022-08-02T03:21:00;99017.75;;;19.73;100.00
33280;BME280;20403;43.114;12.434;2022-08-02T03:23:27;99015.44;;;19.66;100.00
33280;BME280;20403;43.114;12.434;2022-08-02T03:25:52;99013.31;;;19.68;100.00
33280;BME280;20403;43.114;12.434;2022-08-02T03:28:18;99020.19;;;19.69;100.00
33280;BME280;20403;43.114;12.434;2022-08-02T03:30:43;99022.06;;;19.64;100.00
33280;BME280;20403;43.114;12.434;2022-08-02T03:33:09;99016.28;;;19.62;100.00
33280;BME280;20403;43.114;12.434;2022-08-02T03:35:35;99030.41;;;19.52;100.00
33280;BME280;20403;43.114;12.434;2022-08-02T03:38:02;99027.47;;;19.53;100.00
33280;BME280;20403;43.114;12.434;2022-08-02T03:40:29;99025.06;;;19.57;100.00
33280;BME280;20403;43.114;12.434;2022-08-02T03:42:56;99028.56;;;19.52;100.00
33280;BME280;20403;43.114;12.434;2022-08-02T03:45:22;99029.09;;;19.49;100.00
33280;BME280;20403;43.114;12.434;2022-08-02T03:47:49;99033.38;;;19.45;100.00
33280;BME280;20403;43.114;12.434;2022-08-02T03:50:15;99030.72;;;19.45;100.00
33280;BME280;20403;43.114;12.434;2022-08-02T03:52:45;99033.34;;;19.50;100.00
33280;BME280;20403;43.114;12.434;2022-08-02T03:55:12;99029.41;;;19.48;100.00
33280;BME280;20403;43.114;12.434;2022-08-02T03:57:39;99023.31;;;19.47;100.00
33280;BME280;20403;43.114;12.434;2022-08-02T04:00:06;99023.88;;;19.44;100.00
33280;BME280;20403;43.114;12.434;2022-08-02T04:02:32;99023.88;;;19.44;100.00
33280;BME280;20403;43.114;12.434;2022-08-02T04:04:58;99029.16;;;19.44;100.00
33280;BME280;20403;43.114;12.434;2022-08-02T04:07:23;99033.25;;;19.31;100.00
33280;BME280;20403;43.114;12.434;2022-08-02T04:09:49;99030.34;;;19.33;100.00
33280;BME280;20403;43.114;12.434;2022-08-02T04:12:14;99038.13;;;19.48;100.00
33280;BME280;20403;43.114;12.434;2022-08-02T04:14:40;99046.16;;;19.38;100.00
33280;BME280;20403;43.114;12.434;2022-08-02T04:17:08;99040.81;;;19.43;100.00
33280;BME280;20403;43.114;12.434;2022-08-02T04:22:11;99032.44;;;19.60;100.00
33280;BME280;20403;43.114;12.434;2022-08-02T04:24:40;99040.94;;;19.57;100.00
33280;BME280;20403;43.114;12.434;2022-08-02T04:27:09;99033.88;;;19.47;100.00
33280;BME280;20403;43.114;12.434;2022-08-02T04:29:35;99040.25;;;19.46;100.00
33280;BME280;20403;43.114;12.434;2022-08-02T04:32:02;99039.75;;;19.44;100.00
33280;BME280;20403;43.114;12.434;2022-08-02T04:34:29;99043.94;;;19.45;100.00
33280;BME280;20403;43.114;12.434;2022-08-02T04:36:55;99038.28;;;19.57;100.00
33280;BME280;20403;43.114;12.434;2022-08-02T04:39:21;99041.09;;;19.66;100.00
33280;BME280;20403;43.114;12.434;2022-08-02T04:41:47;99033.72;;;19.63;100.00
33280;BME280;20403;43.114;12.434;2022-08-02T04:44:12;99037.84;;;19.74;100.00
33280;BME280;20403;43.114;12.434;2022-08-02T04:46:38;99029.84;;;19.79;100.00
33280;BME280;20403;43.114;12.434;2022-08-02T04:49:05;99034.44;;;19.92;100.00
33280;BME280;20403;43.114;12.434;2022-08-02T04:51:38;99041.69;;;20.06;100.00
33280;BME280;20403;43.114;12.434;2022-08-02T04:54:05;99035.31;;;20.07;100.00
33280;BME280;20403;43.114;12.434;2022-08-02T04:56:30;99030.72;;;20.12;100.00
33280;BME280;20403;43.114;12.434;2022-08-02T04:58:56;99040.25;;;20.13;100.00
33280;BME280;20403;43.114;12.434;2022-08-02T05:01:21;99040.91;;;20.24;100.00
33280;BME280;20403;43.114;12.434;2022-08-02T05:04:07;99035.75;;;20.52;100.00
33280;BME280;20403;43.114;12.434;2022-08-02T05:06:32;99033.53;;;20.59;100.00
33280;BME280;20403;43.114;12.434;2022-08-02T05:08:58;99040.06;;;20.81;100.00
33280;BME280;20403;43.114;12.434;2022-08-02T05:11:24;99044.28;;;20.82;100.00
33280;BME280;20403;43.114;12.434;2022-08-02T05:13:50;99047.81;;;20.77;100.00
33280;BME280;20403;43.114;12.434;2022-08-02T05:16:15;99053.22;;;20.86;100.00
33280;BME280;20403;43.114;12.434;2022-08-02T05:18:41;99048.25;;;20.84;100.00
33280;BME280;20403;43.114;12.434;2022-08-02T05:21:06;99052.09;;;20.92;100.00
33280;BME280;20403;43.114;12.434;2022-08-02T05:23:32;99057.19;;;21.02;100.00
33280;BME280;20403;43.114;12.434;2022-08-02T05:25:57;99052.41;;;21.04;100.00
33280;BME280;20403;43.114;12.434;2022-08-02T05:28:23;99056.00;;;20.94;100.00
33280;BME280;20403;43.114;12.434;2022-08-02T05:30:49;99058.28;;;21.01;100.00
33280;BME280;20403;43.114;12.434;2022-08-02T05:33:15;99062.22;;;21.04;100.00
33280;BME280;20403;43.114;12.434;2022-08-02T05:35:40;99063.81;;;21.18;100.00
33280;BME280;20403;43.114;12.434;2022-08-02T05:38:05;99058.44;;;21.24;100.00
33280;BME280;20403;43.114;12.434;2022-08-02T05:40:31;99053.59;;;21.26;100.00
33280;BME280;20403;43.114;12.434;2022-08-02T05:42:56;99052.09;;;21.52;100.00
33280;BME280;20403;43.114;12.434;2022-08-02T05:45:22;99057.09;;;21.68;100.00
33280;BME280;20403;43.114;12.434;2022-08-02T05:47:47;99057.97;;;21.77;100.00
33280;BME280;20403;43.114;12.434;2022-08-02T05:50:13;99056.38;;;21.90;100.00
33280;BME280;20403;43.114;12.434;2022-08-02T05:55:39;99061.56;;;22.09;100.00
33280;BME280;20403;43.114;12.434;2022-08-02T05:58:20;99060.47;;;22.23;100.00
33280;BME280;20403;43.114;12.434;2022-08-02T06:00:48;99060.06;;;22.30;100.00
33280;BME280;20403;43.114;12.434;2022-08-02T06:03:43;99057.91;;;22.55;100.00
33280;BME280;20403;43.114;12.434;2022-08-02T06:06:14;99064.63;;;22.75;100.00
33280;BME280;20403;43.114;12.434;2022-08-02T06:08:48;99054.88;;;22.93;100.00
33280;BME280;20403;43.114;12.434;2022-08-02T06:11:17;99064.06;;;23.09;100.00
33280;BME280;20403;43.114;12.434;2022-08-02T06:13:45;99069.47;;;23.26;100.00
33280;BME280;20403;43.114;12.434;2022-08-02T06:16:11;99076.91;;;23.47;100.00
33280;BME280;20403;43.114;12.434;2022-08-02T06:18:40;99072.72;;;23.63;100.00
33280;BME280;20403;43.114;12.434;2022-08-02T06:21:05;99075.00;;;23.79;100.00
33280;BME280;20403;43.114;12.434;2022-08-02T06:23:33;99080.66;;;23.86;100.00
33280;BME280;20403;43.114;12.434;2022-08-02T06:25:59;99074.41;;;23.90;100.00
33280;BME280;20403;43.114;12.434;2022-08-02T06:28:25;99086.50;;;23.97;100.00
33280;BME280;20403;43.114;12.434;2022-08-02T06:30:54;99085.91;;;24.17;100.00
33280;BME280;20403;43.114;12.434;2022-08-02T06:33:20;99076.50;;;24.20;100.00
33280;BME280;20403;43.114;12.434;2022-08-02T06:38:21;99076.66;;;24.41;100.00
33280;BME280;20403;43.114;12.434;2022-08-02T06:40:55;99074.94;;;24.53;100.00
33280;BME280;20403;43.114;12.434;2022-08-02T06:43:51;99071.91;;;24.81;100.00
33280;BME280;20403;43.114;12.434;2022-08-02T06:46:18;99069.06;;;24.95;100.00
33280;BME280;20403;43.114;12.434;2022-08-02T06:48:44;99077.84;;;25.04;100.00
33280;BME280;20403;43.114;12.434;2022-08-02T06:51:09;99076.88;;;25.17;100.00
33280;BME280;20403;43.114;12.434;2022-08-02T06:53:35;99074.13;;;25.44;97.17
33280;BME280;20403;43.114;12.434;2022-08-02T06:56:00;99069.22;;;25.54;94.38
33280;BME280;20403;43.114;12.434;2022-08-02T06:58:25;99074.59;;;25.75;97.26
33280;BME280;20403;43.114;12.434;2022-08-02T07:00:51;99074.53;;;25.93;87.90
33280;BME280;20403;43.114;12.434;2022-08-02T07:03:17;99067.03;;;26.07;87.19
33280;BME280;20403;43.114;12.434;2022-08-02T07:05:43;99068.28;;;26.10;80.99
33280;BME280;20403;43.114;12.434;2022-08-02T07:08:16;99063.25;;;26.08;89.36
33280;BME280;20403;43.114;12.434;2022-08-02T07:10:41;99064.84;;;26.09;83.60
33280;BME280;20403;43.114;12.434;2022-08-02T07:13:07;99062.88;;;26.18;79.92
33280;BME280;20403;43.114;12.434;2022-08-02T07:15:32;99056.63;;;26.14;79.20
33280;BME280;20403;43.114;12.434;2022-08-02T07:17:58;99067.69;;;26.46;82.47
33280;BME280;20403;43.114;12.434;2022-08-02T07:20:23;99051.56;;;26.76;75.86
33280;BME280;20403;43.114;12.434;2022-08-02T07:22:49;99053.16;;;27.01;74.64
33280;BME280;20403;43.114;12.434;2022-08-02T07:25:14;99057.84;;;27.17;74.05
33280;BME280;20403;43.114;12.434;2022-08-02T07:27:40;99055.78;;;27.22;71.65
33280;BME280;20403;43.114;12.434;2022-08-02T07:30:06;99057.47;;;27.27;69.87
33280;BME280;20403;43.114;12.434;2022-08-02T07:32:32;99054.00;;;27.39;70.52
33280;BME280;20403;43.114;12.434;2022-08-02T07:34:58;99052.88;;;27.52;69.24
33280;BME280;20403;43.114;12.434;2022-08-02T07:37:27;99055.56;;;27.52;66.51
33280;BME280;20403;43.114;12.434;2022-08-02T07:39:52;99057.47;;;27.64;66.94
33280;BME280;20403;43.114;12.434;2022-08-02T07:42:18;99054.44;;;27.53;65.40
33280;BME280;20403;43.114;12.434;2022-08-02T07:44:43;99050.75;;;27.58;66.46
33280;BME280;20403;43.114;12.434;2022-08-02T07:47:09;99048.97;;;27.62;69.23
33280;BME280;20403;43.114;12.434;2022-08-02T07:49:34;99039.38;;;27.85;68.98
33280;BME280;20403;43.114;12.434;2022-08-02T07:52:00;99035.09;;;27.97;68.64
33280;BME280;20403;43.114;12.434;2022-08-02T07:54:25;99043.22;;;28.00;68.67
33280;BME280;20403;43.114;12.434;2022-08-02T07:56:50;99040.66;;;28.32;66.33
33280;BME280;20403;43.114;12.434;2022-08-02T07:59:18;99032.41;;;28.65;61.66
33280;BME280;20403;43.114;12.434;2022-08-02T08:01:43;99037.53;;;28.86;59.51
33280;BME280;20403;43.114;12.434;2022-08-02T08:04:14;99041.06;;;28.90;59.94
33280;BME280;20403;43.114;12.434;2022-08-02T08:06:39;99046.53;;;28.94;59.00
33280;BME280;20403;43.114;12.434;2022-08-02T08:09:05;99039.09;;;29.03;60.07
33280;BME280;20403;43.114;12.434;2022-08-02T08:11:30;99041.38;;;29.17;59.10
33280;BME280;20403;43.114;12.434;2022-08-02T08:13:56;99041.59;;;29.44;57.07
33280;BME280;20403;43.114;12.434;2022-08-02T08:16:21;99038.19;;;29.63;53.83
33280;BME280;20403;43.114;12.434;2022-08-02T08:18:46;99037.63;;;29.53;52.54
33280;BME280;20403;43.114;12.434;2022-08-02T08:21:12;99034.72;;;29.62;52.02
33280;BME280;20403;43.114;12.434;2022-08-02T08:23:37;99032.16;;;29.85;52.78
33280;BME280;20403;43.114;12.434;2022-08-02T08:26:03;99030.22;;;30.02;50.03
33280;BME280;20403;43.114;12.434;2022-08-02T08:28:28;99028.19;;;30.34;49.92
33280;BME280;20403;43.114;12.434;2022-08-02T08:30:54;99026.47;;;30.68;49.49
33280;BME280;20403;43.114;12.434;2022-08-02T08:33:20;99021.63;;;30.77;48.60
33280;BME280;20403;43.114;12.434;2022-08-02T08:35:45;99017.66;;;30.91;48.95
33280;BME280;20403;43.114;12.434;2022-08-02T08:38:11;99018.16;;;30.96;49.28
33280;BME280;20403;43.114;12.434;2022-08-02T08:40:36;99021.94;;;31.18;48.88
33280;BME280;20403;43.114;12.434;2022-08-02T08:43:03;99017.72;;;31.44;48.05
33280;BME280;20403;43.114;12.434;2022-08-02T08:45:29;99019.69;;;31.74;47.60
33280;BME280;20403;43.114;12.434;2022-08-02T08:48:00;99014.53;;;31.95;45.01
33280;BME280;20403;43.114;12.434;2022-08-02T08:50:25;99016.25;;;32.07;44.97
33280;BME280;20403;43.114;12.434;2022-08-02T08:53:09;99026.19;;;32.33;44.26
33280;BME280;20403;43.114;12.434;2022-08-02T08:55:36;99024.13;;;32.57;41.80
33280;BME280;20403;43.114;12.434;2022-08-02T08:58:03;99026.16;;;32.67;43.82
33280;BME280;20403;43.114;12.434;2022-08-02T09:00:31;99029.13;;;32.55;43.34
33280;BME280;20403;43.114;12.434;2022-08-02T09:02:57;99031.13;;;32.61;43.47
33280;BME280;20403;43.114;12.434;2022-08-02T09:05:23;99022.06;;;32.84;43.87
33280;BME280;20403;43.114;12.434;2022-08-02T09:07:51;99015.22;;;32.97;42.96
33280;BME280;20403;43.114;12.434;2022-08-02T09:10:37;99019.66;;;33.16;42.64
33280;BME280;20403;43.114;12.434;2022-08-02T09:13:20;99009.97;;;33.15;41.24
33280;BME280;20403;43.114;12.434;2022-08-02T09:15:56;99015.78;;;33.17;42.86
33280;BME280;20403;43.114;12.434;2022-08-02T09:18:48;99011.31;;;33.43;41.89
33280;BME280;20403;43.114;12.434;2022-08-02T09:21:15;99015.38;;;33.74;40.47
33280;BME280;20403;43.114;12.434;2022-08-02T09:23:42;99012.81;;;34.06;39.69
33280;BME280;20403;43.114;12.434;2022-08-02T09:26:16;99015.59;;;34.31;38.77
33280;BME280;20403;43.114;12.434;2022-08-02T09:28:45;99016.41;;;34.57;38.21
33280;BME280;20403;43.114;12.434;2022-08-02T09:31:14;99012.97;;;34.85;37.54
33280;BME280;20403;43.114;12.434;2022-08-02T09:33:41;99011.41;;;34.91;36.33
33280;BME280;20403;43.114;12.434;2022-08-02T09:36:14;99005.22;;;35.05;36.39
33280;BME280;20403;43.114;12.434;2022-08-02T09:38:53;98998.25;;;35.11;35.67
33280;BME280;20403;43.114;12.434;2022-08-02T09:41:24;98994.00;;;34.82;35.19
33280;BME280;20403;43.114;12.434;2022-08-02T09:43:51;98985.09;;;34.70;36.34
33280;BME280;20403;43.114;12.434;2022-08-02T09:46:25;98985.09;;;34.81;36.71
33280;BME280;20403;43.114;12.434;2022-08-02T09:48:56;98983.53;;;35.02;35.68
33280;BME280;20403;43.114;12.434;2022-08-02T09:51:24;98983.91;;;35.00;34.81
33280;BME280;20403;43.114;12.434;2022-08-02T09:53:53;98969.59;;;35.21;35.04
33280;BME280;20403;43.114;12.434;2022-08-02T09:56:20;98973.38;;;35.49;34.58
33280;BME280;20403;43.114;12.434;2022-08-02T09:58:46;98966.38;;;35.66;35.52
33280;BME280;20403;43.114;12.434;2022-08-02T10:01:13;98962.38;;;35.88;35.11
33280;BME280;20403;43.114;12.434;2022-08-02T10:04:00;98975.44;;;36.18;33.45
33280;BME280;20403;43.114;12.434;2022-08-02T10:06:26;98972.91;;;36.49;32.09
33280;BME280;20403;43.114;12.434;2022-08-02T10:08:52;98976.56;;;36.80;32.41
33280;BME280;20403;43.114;12.434;2022-08-02T10:11:22;98966.44;;;36.81;31.60
33280;BME280;20403;43.114;12.434;2022-08-02T10:13:48;98978.09;;;36.82;31.24
33280;BME280;20403;43.114;12.434;2022-08-02T10:16:19;98974.78;;;36.59;30.99
33280;BME280;20403;43.114;12.434;2022-08-02T10:18:52;98981.19;;;36.28;29.65
33280;BME280;20403;43.114;12.434;2022-08-02T10:21:43;98979.13;;;36.46;29.42
33280;BME280;20403;43.114;12.434;2022-08-02T10:24:15;98967.41;;;36.56;30.95
33280;BME280;20403;43.114;12.434;2022-08-02T10:26:43;98962.19;;;36.80;30.38
33280;BME280;20403;43.114;12.434;2022-08-02T10:29:10;98970.88;;;36.64;29.84
33280;BME280;20403;43.114;12.434;2022-08-02T10:34:17;98966.75;;;37.32;30.05
33280;BME280;20403;43.114;12.434;2022-08-02T10:36:45;98963.44;;;37.48;28.83
33280;BME280;20403;43.114;12.434;2022-08-02T10:39:11;98962.97;;;36.80;28.65
33280;BME280;20403;43.114;12.434;2022-08-02T10:41:43;98956.69;;;36.87;29.14
33280;BME280;20403;43.114;12.434;2022-08-02T10:44:28;98949.00;;;37.20;29.10
33280;BME280;20403;43.114;12.434;2022-08-02T10:47:22;98945.78;;;37.67;27.66
33280;BME280;20403;43.114;12.434;2022-08-02T10:52:29;98949.69;;;37.93;28.57
33280;BME280;20403;43.114;12.434;2022-08-02T10:55:00;98945.25;;;38.06;27.79
33280;BME280;20403;43.114;12.434;2022-08-02T10:57:28;98946.53;;;37.67;27.29
33280;BME280;20403;43.114;12.434;2022-08-02T11:02:42;98939.13;;;37.37;27.81
33280;BME280;20403;43.114;12.434;2022-08-02T11:05:13;98936.75;;;37.39;27.84
33280;BME280;20403;43.114;12.434;2022-08-02T11:07:49;98927.25;;;37.54;27.52
33280;BME280;20403;43.114;12.434;2022-08-02T11:10:28;98929.47;;;37.63;27.44
33280;BME280;20403;43.114;12.434;2022-08-02T11:13:09;98928.66;;;37.32;27.65
33280;BME280;20403;43.114;12.434;2022-08-02T11:16:01;98932.63;;;36.86;28.01
33280;BME280;20403;43.114;12.434;2022-08-02T11:21:26;98931.97;;;36.26;28.46
33280;BME280;20403;43.114;12.434;2022-08-02T11:23:53;98927.06;;;36.58;28.97
33280;BME280;20403;43.114;12.434;2022-08-02T11:29:01;98924.66;;;36.15;28.11
33280;BME280;20403;43.114;12.434;2022-08-02T11:31:28;98926.00;;;35.79;29.00
33280;BME280;20403;43.114;12.434;2022-08-02T11:33:54;98921.47;;;35.61;29.67
33280;BME280;20403;43.114;12.434;2022-08-02T11:36:20;98911.00;;;35.63;28.46
33280;BME280;20403;43.114;12.434;2022-08-02T11:38:46;98920.50;;;35.93;27.44
33280;BME280;20403;43.114;12.434;2022-08-02T11:41:18;98909.03;;;36.30;26.92
33280;BME280;20403;43.114;12.434;2022-08-02T11:43:45;98907.78;;;36.42;26.02
33280;BME280;20403;43.114;12.434;2022-08-02T11:46:12;98912.41;;;36.45;26.97
33280;BME280;20403;43.114;12.434;2022-08-02T11:48:39;98904.94;;;36.53;28.33
33280;BME280;20403;43.114;12.434;2022-08-02T11:51:13;98908.03;;;36.58;26.79
33280;BME280;20403;43.114;12.434;2022-08-02T11:53:53;98907.16;;;36.24;27.39
33280;BME280;20403;43.114;12.434;2022-08-02T11:56:26;98907.72;;;35.93;29.39
33280;BME280;20403;43.114;12.434;2022-08-02T11:59:04;98909.91;;;35.35;30.49
33280;BME280;20403;43.114;12.434;2022-08-02T12:01:31;98921.59;;;35.00;33.24
33280;BME280;20403;43.114;12.434;2022-08-02T12:03:57;98918.53;;;34.66;35.25
33280;BME280;20403;43.114;12.434;2022-08-02T12:06:26;98916.97;;;34.47;36.69
33280;BME280;20403;43.114;12.434;2022-08-02T12:09:07;98917.34;;;34.31;37.26
33280;BME280;20403;43.114;12.434;2022-08-02T12:11:33;98916.19;;;34.53;37.69
33280;BME280;20403;43.114;12.434;2022-08-02T12:13:59;98911.59;;;34.76;37.35
33280;BME280;20403;43.114;12.434;2022-08-02T12:16:33;98907.28;;;35.00;38.74
33280;BME280;20403;43.114;12.434;2022-08-02T12:19:17;98914.63;;;35.13;38.34
33280;BME280;20403;43.114;12.434;2022-08-02T12:21:43;98909.91;;;35.28;39.51
33280;BME280;20403;43.114;12.434;2022-08-02T12:24:09;98914.91;;;35.44;37.54
33280;BME280;20403;43.114;12.434;2022-08-02T12:26:46;98913.03;;;35.27;37.07
33280;BME280;20403;43.114;12.434;2022-08-02T12:29:12;98911.78;;;35.42;35.85
33280;BME280;20403;43.114;12.434;2022-08-02T12:31:43;98913.66;;;35.70;34.67
33280;BME280;20403;43.114;12.434;2022-08-02T12:34:16;98910.34;;;36.04;33.67
33280;BME280;20403;43.114;12.434;2022-08-02T12:37:03;98906.88;;;36.56;32.34
33280;BME280;20403;43.114;12.434;2022-08-02T12:39:34;98903.16;;;36.84;32.92
33280;BME280;20403;43.114;12.434;2022-08-02T12:42:00;98903.97;;;37.19;32.02
33280;BME280;20403;43.114;12.434;2022-08-02T12:44:26;98890.59;;;37.32;30.82
33280;BME280;20403;43.114;12.434;2022-08-02T12:47:03;98887.13;;;37.62;30.95
33280;BME280;20403;43.114;12.434;2022-08-02T12:49:29;98889.28;;;37.74;30.61
33280;BME280;20403;43.114;12.434;2022-08-02T12:51:55;98885.41;;;38.02;29.79
33280;BME280;20403;43.114;12.434;2022-08-02T12:54:23;98886.00;;;37.87;31.30
33280;BME280;20403;43.114;12.434;2022-08-02T12:56:49;98888.72;;;37.87;31.59
33280;BME280;20403;43.114;12.434;2022-08-02T12:59:16;98884.13;;;37.80;31.44
33280;BME280;20403;43.114;12.434;2022-08-02T13:02:11;98881.41;;;37.80;31.33
33280;BME280;20403;43.114;12.434;2022-08-02T13:04:37;98869.97;;;37.92;30.16
33280;BME280;20403;43.114;12.434;2022-08-02T13:07:03;98869.84;;;37.76;30.56
33280;BME280;20403;43.114;12.434;2022-08-02T13:09:38;98860.13;;;38.02;30.17
33280;BME280;20403;43.114;12.434;2022-08-02T13:12:05;98853.00;;;38.08;29.50
33280;BME280;20403;43.114;12.434;2022-08-02T13:14:32;98850.56;;;37.90;28.97
33280;BME280;20403;43.114;12.434;2022-08-02T13:16:57;98858.66;;;37.94;29.32
33280;BME280;20403;43.114;12.434;2022-08-02T13:19:23;98847.28;;;38.02;28.12
33280;BME280;20403;43.114;12.434;2022-08-02T13:21:48;98853.72;;;38.12;27.57
33280;BME280;20403;43.114;12.434;2022-08-02T13:24:14;98845.63;;;38.32;27.28
33280;BME280;20403;43.114;12.434;2022-08-02T13:26:41;98845.50;;;38.16;27.54
33280;BME280;20403;43.114;12.434;2022-08-02T13:29:08;98838.88;;;38.17;27.71
33280;BME280;20403;43.114;12.434;2022-08-02T13:31:34;98836.66;;;37.57;28.13